sensor_id;sensor_type;location;lat;lon;timestamp;P1;durP1;ratioP1;P2;durP2;ratioP2
53925;SDS011;39836;52.754;6.866;2023-02-22T00:00:52;110.85;;;38.85;;
53925;SDS011;39836;52.754;6.866;2023-02-22T00:03:21;113.03;;;37.60;;
53925;SDS011;39836;52.754;6.866;2023-02-22T00:05:55;112.88;;;38.70;;
53925;SDS011;39836;52.754;6.866;2023-02-22T00:08:29;109.13;;;38.38;;
53925;SDS011;39836;52.754;6.866;2023-02-22T00:11:02;125.35;;;39.33;;
53925;SDS011;39836;52.754;6.866;2023-02-22T00:13:33;108.38;;;38.42;;
53925;SDS011;39836;52.754;6.866;2023-02-22T00:15:59;101.45;;;36.63;;
53925;SDS011;39836;52.754;6.866;2023-02-22T00:18:25;113.18;;;38.20;;
53925;SDS011;39836;52.754;6.866;2023-02-22T00:20:52;106.07;;;39.22;;
53925;SDS011;39836;52.754;6.866;2023-02-22T00:23:24;89.45;;;33.95;;
53925;SDS011;39836;52.754;6.866;2023-02-22T00:25:52;104.47;;;37.25;;
53925;SDS011;39836;52.754;6.866;2023-02-22T00:28:19;111.18;;;36.15;;
53925;SDS011;39836;52.754;6.866;2023-02-22T00:30:45;106.88;;;36.63;;
53925;SDS011;39836;52.754;6.866;2023-02-22T00:33:12;116.18;;;39.17;;
53925;SDS011;39836;52.754;6.866;2023-02-22T00:35:39;119.78;;;38.50;;
53925;SDS011;39836;52.754;6.866;2023-02-22T00:38:06;107.82;;;38.35;;
53925;SDS011;39836;52.754;6.866;2023-02-22T00:40:32;116.13;;;37.55;;
53925;SDS011;39836;52.754;6.866;2023-02-22T00:43:00;112.60;;;37.50;;
53925;SDS011;39836;52.754;6.866;2023-02-22T00:45:27;127.00;;;37.55;;
53925;SDS011;39836;52.754;6.866;2023-02-22T00:47:54;106.40;;;35.88;;
53925;SDS011;39836;52.754;6.866;2023-02-22T00:50:20;117.20;;;37.67;;
53925;SDS011;39836;52.754;6.866;2023-02-22T00:52:47;115.15;;;35.97;;
53925;SDS011;39836;52.754;6.866;2023-02-22T00:55:14;113.28;;;37.15;;
53925;SDS011;39836;52.754;6.866;2023-02-22T00:57:51;114.68;;;37.65;;
53925;SDS011;39836;52.754;6.866;2023-02-22T01:00:19;108.45;;;36.47;;
53925;SDS011;39836;52.754;6.866;2023-02-22T01:02:46;107.55;;;35.95;;
53925;SDS011;39836;52.754;6.866;2023-02-22T01:05:16;133.38;;;38.45;;
53925;SDS011;39836;52.754;6.866;2023-02-22T01:07:45;120.63;;;37.13;;
53925;SDS011;39836;52.754;6.866;2023-02-22T01:10:12;112.90;;;35.88;;
53925;SDS011;39836;52.754;6.866;2023-02-22T01:12:38;127.47;;;37.33;;
53925;SDS011;39836;52.754;6.866;2023-02-22T01:15:07;133.98;;;40.05;;
53925;SDS011;39836;52.754;6.866;2023-02-22T01:17:36;124.53;;;39.70;;
53925;SDS011;39836;52.754;6.866;2023-02-22T01:20:08;126.25;;;38.80;;
53925;SDS011;39836;52.754;6.866;2023-02-22T01:22:37;126.65;;;38.40;;
53925;SDS011;39836;52.754;6.866;2023-02-22T01:25:03;131.35;;;40.25;;
53925;SDS011;39836;52.754;6.866;2023-02-22T01:27:31;137.55;;;41.58;;
53925;SDS011;39836;52.754;6.866;2023-02-22T01:29:58;139.77;;;39.92;;
53925;SDS011;39836;52.754;6.866;2023-02-22T01:32:24;124.80;;;37.40;;
53925;SDS011;39836;52.754;6.866;2023-02-22T01:34:51;138.70;;;39.75;;
53925;SDS011;39836;52.754;6.866;2023-02-22T01:37:18;127.78;;;39.15;;
53925;SDS011;39836;52.754;6.866;2023-02-22T01:39:43;122.15;;;38.72;;
53925;SDS011;39836;52.754;6.866;2023-02-22T01:42:09;113.13;;;36.05;;
53925;SDS011;39836;52.754;6.866;2023-02-22T01:44:36;117.85;;;37.88;;
53925;SDS011;39836;52.754;6.866;2023-02-22T01:47:03;111.75;;;39.25;;
53925;SDS011;39836;52.754;6.866;2023-02-22T01:49:51;115.80;;;38.10;;
53925;SDS011;39836;52.754;6.866;2023-02-22T01:52:17;122.30;;;39.33;;
53925;SDS011;39836;52.754;6.866;2023-02-22T01:54:47;106.85;;;35.88;;
53925;SDS011;39836;52.754;6.866;2023-02-22T01:57:23;119.65;;;38.47;;
53925;SDS011;39836;52.754;6.866;2023-02-22T01:59:55;111.43;;;37.22;;
53925;SDS011;39836;52.754;6.866;2023-02-22T02:02:34;121.45;;;39.25;;
53925;SDS011;39836;52.754;6.866;2023-02-22T02:05:01;111.30;;;37.55;;
53925;SDS011;39836;52.754;6.866;2023-02-22T02:07:32;111.10;;;36.80;;
53925;SDS011;39836;52.754;6.866;2023-02-22T02:10:00;111.35;;;35.88;;
53925;SDS011;39836;52.754;6.866;2023-02-22T02:12:31;114.50;;;37.15;;
53925;SDS011;39836;52.754;6.866;2023-02-22T02:17:47;115.40;;;38.78;;
53925;SDS011;39836;52.754;6.866;2023-02-22T02:42:53;132.52;;;38.70;;
53925;SDS011;39836;52.754;6.866;2023-02-22T02:45:28;138.07;;;41.88;;
53925;SDS011;39836;52.754;6.866;2023-02-22T02:47:59;129.05;;;40.75;;
53925;SDS011;39836;52.754;6.866;2023-02-22T02:50:35;141.23;;;40.95;;
53925;SDS011;39836;52.754;6.866;2023-02-22T02:53:06;148.55;;;44.42;;
53925;SDS011;39836;52.754;6.866;2023-02-22T02:55:33;140.70;;;43.30;;
53925;SDS011;39836;52.754;6.866;2023-02-22T02:58:02;132.23;;;41.95;;
53925;SDS011;39836;52.754;6.866;2023-02-22T03:00:30;145.70;;;44.47;;
53925;SDS011;39836;52.754;6.866;2023-02-22T03:03:16;147.35;;;44.95;;
53925;SDS011;39836;52.754;6.866;2023-02-22T03:08:52;150.00;;;46.35;;
53925;SDS011;39836;52.754;6.866;2023-02-22T03:20:06;161.32;;;49.17;;
53925;SDS011;39836;52.754;6.866;2023-02-22T03:22:43;159.23;;;47.72;;
53925;SDS011;39836;52.754;6.866;2023-02-22T03:25:22;153.68;;;48.17;;
53925;SDS011;39836;52.754;6.866;2023-02-22T03:27:54;152.52;;;46.55;;
53925;SDS011;39836;52.754;6.866;2023-02-22T03:33:16;158.93;;;49.13;;
53925;SDS011;39836;52.754;6.866;2023-02-22T03:38:23;164.40;;;51.65;;
53925;SDS011;39836;52.754;6.866;2023-02-22T03:40:52;162.65;;;52.28;;
53925;SDS011;39836;52.754;6.866;2023-02-22T03:43:33;144.82;;;48.13;;
53925;SDS011;39836;52.754;6.866;2023-02-22T03:46:07;143.95;;;50.67;;
53925;SDS011;39836;52.754;6.866;2023-02-22T03:51:08;127.78;;;46.33;;
53925;SDS011;39836;52.754;6.866;2023-02-22T03:53:38;137.00;;;48.40;;
53925;SDS011;39836;52.754;6.866;2023-02-22T03:56:06;134.50;;;50.58;;
53925;SDS011;39836;52.754;6.866;2023-02-22T03:58:36;138.43;;;50.05;;
53925;SDS011;39836;52.754;6.866;2023-02-22T04:01:02;135.23;;;50.75;;
53925;SDS011;39836;52.754;6.866;2023-02-22T04:03:28;130.95;;;48.92;;
53925;SDS011;39836;52.754;6.866;2023-02-22T04:05:54;137.30;;;50.60;;
53925;SDS011;39836;52.754;6.866;2023-02-22T04:08:20;120.43;;;44.13;;
53925;SDS011;39836;52.754;6.866;2023-02-22T04:10:45;127.68;;;46.80;;
53925;SDS011;39836;52.754;6.866;2023-02-22T04:13:11;118.53;;;43.92;;
53925;SDS011;39836;52.754;6.866;2023-02-22T04:15:38;118.53;;;47.90;;
53925;SDS011;39836;52.754;6.866;2023-02-22T04:18:04;126.63;;;48.67;;
53925;SDS011;39836;52.754;6.866;2023-02-22T04:20:30;130.00;;;49.15;;
53925;SDS011;39836;52.754;6.866;2023-02-22T04:22:55;127.10;;;47.67;;
53925;SDS011;39836;52.754;6.866;2023-02-22T04:25:21;130.95;;;45.33;;
53925;SDS011;39836;52.754;6.866;2023-02-22T04:27:48;136.80;;;48.25;;
53925;SDS011;39836;52.754;6.866;2023-02-22T04:30:15;132.80;;;50.40;;
53925;SDS011;39836;52.754;6.866;2023-02-22T04:32:42;147.57;;;49.83;;
53925;SDS011;39836;52.754;6.866;2023-02-22T04:35:08;134.55;;;50.03;;
53925;SDS011;39836;52.754;6.866;2023-02-22T04:37:34;133.18;;;50.47;;
53925;SDS011;39836;52.754;6.866;2023-02-22T04:40:00;136.90;;;50.22;;
53925;SDS011;39836;52.754;6.866;2023-02-22T04:42:27;131.68;;;49.40;;
53925;SDS011;39836;52.754;6.866;2023-02-22T04:44:53;143.05;;;49.53;;
53925;SDS011;39836;52.754;6.866;2023-02-22T04:47:19;144.82;;;52.03;;
53925;SDS011;39836;52.754;6.866;2023-02-22T04:49:44;147.25;;;51.95;;
53925;SDS011;39836;52.754;6.866;2023-02-22T04:52:10;134.75;;;51.83;;
53925;SDS011;39836;52.754;6.866;2023-02-22T04:54:36;137.20;;;48.83;;
53925;SDS011;39836;52.754;6.866;2023-02-22T04:57:02;140.25;;;50.83;;
53925;SDS011;39836;52.754;6.866;2023-02-22T04:59:28;132.00;;;50.90;;
53925;SDS011;39836;52.754;6.866;2023-02-22T05:01:53;143.48;;;50.53;;
53925;SDS011;39836;52.754;6.866;2023-02-22T05:04:19;143.68;;;52.25;;
53925;SDS011;39836;52.754;6.866;2023-02-22T05:06:45;139.60;;;50.85;;
53925;SDS011;39836;52.754;6.866;2023-02-22T05:09:12;137.13;;;50.80;;
53925;SDS011;39836;52.754;6.866;2023-02-22T05:11:38;136.05;;;48.80;;
53925;SDS011;39836;52.754;6.866;2023-02-22T05:14:04;142.27;;;50.33;;
53925;SDS011;39836;52.754;6.866;2023-02-22T05:16:29;148.70;;;52.30;;
53925;SDS011;39836;52.754;6.866;2023-02-22T05:18:55;146.70;;;52.65;;
53925;SDS011;39836;52.754;6.866;2023-02-22T05:21:21;134.80;;;50.58;;
53925;SDS011;39836;52.754;6.866;2023-02-22T05:23:47;147.02;;;53.90;;
53925;SDS011;39836;52.754;6.866;2023-02-22T05:26:13;139.13;;;50.85;;
53925;SDS011;39836;52.754;6.866;2023-02-22T05:28:39;144.50;;;50.97;;
53925;SDS011;39836;52.754;6.866;2023-02-22T05:31:05;149.85;;;49.83;;
53925;SDS011;39836;52.754;6.866;2023-02-22T05:33:33;144.30;;;49.95;;
53925;SDS011;39836;52.754;6.866;2023-02-22T05:35:59;150.90;;;49.97;;
53925;SDS011;39836;52.754;6.866;2023-02-22T05:38:25;163.90;;;53.47;;
53925;SDS011;39836;52.754;6.866;2023-02-22T05:40:51;159.05;;;56.33;;
53925;SDS011;39836;52.754;6.866;2023-02-22T05:43:16;160.27;;;55.28;;
53925;SDS011;39836;52.754;6.866;2023-02-22T05:45:42;149.75;;;54.85;;
53925;SDS011;39836;52.754;6.866;2023-02-22T05:48:08;154.50;;;54.33;;
53925;SDS011;39836;52.754;6.866;2023-02-22T05:50:34;146.75;;;51.50;;
53925;SDS011;39836;52.754;6.866;2023-02-22T05:52:59;150.43;;;50.30;;
53925;SDS011;39836;52.754;6.866;2023-02-22T05:55:25;153.30;;;54.05;;
53925;SDS011;39836;52.754;6.866;2023-02-22T05:57:51;154.88;;;52.05;;
53925;SDS011;39836;52.754;6.866;2023-02-22T06:00:22;161.05;;;54.58;;
53925;SDS011;39836;52.754;6.866;2023-02-22T06:02:56;162.18;;;54.83;;
53925;SDS011;39836;52.754;6.866;2023-02-22T06:05:36;158.82;;;53.33;;
53925;SDS011;39836;52.754;6.866;2023-02-22T06:08:02;142.27;;;47.05;;
53925;SDS011;39836;52.754;6.866;2023-02-22T06:10:29;147.40;;;51.20;;
53925;SDS011;39836;52.754;6.866;2023-02-22T06:12:55;153.63;;;51.28;;
53925;SDS011;39836;52.754;6.866;2023-02-22T06:15:22;159.20;;;51.67;;
53925;SDS011;39836;52.754;6.866;2023-02-22T06:17:49;158.95;;;51.95;;
53925;SDS011;39836;52.754;6.866;2023-02-22T06:20:18;161.30;;;54.97;;
53925;SDS011;39836;52.754;6.866;2023-02-22T06:22:48;154.25;;;50.85;;
53925;SDS011;39836;52.754;6.866;2023-02-22T06:25:18;153.75;;;49.72;;
53925;SDS011;39836;52.754;6.866;2023-02-22T06:27:46;156.10;;;51.72;;
53925;SDS011;39836;52.754;6.866;2023-02-22T06:30:12;168.05;;;52.28;;
53925;SDS011;39836;52.754;6.866;2023-02-22T06:32:39;159.27;;;54.80;;
53925;SDS011;39836;52.754;6.866;2023-02-22T06:35:05;172.73;;;56.15;;
53925;SDS011;39836;52.754;6.866;2023-02-22T06:37:31;142.95;;;49.47;;
53925;SDS011;39836;52.754;6.866;2023-02-22T06:39:57;149.73;;;50.60;;
53925;SDS011;39836;52.754;6.866;2023-02-22T06:42:23;156.68;;;50.53;;
53925;SDS011;39836;52.754;6.866;2023-02-22T06:44:48;148.02;;;48.08;;
53925;SDS011;39836;52.754;6.866;2023-02-22T06:47:14;162.65;;;50.22;;
53925;SDS011;39836;52.754;6.866;2023-02-22T06:49:40;161.38;;;50.17;;
53925;SDS011;39836;52.754;6.866;2023-02-22T06:52:07;150.55;;;50.58;;
53925;SDS011;39836;52.754;6.866;2023-02-22T06:54:33;167.82;;;51.65;;
53925;SDS011;39836;52.754;6.866;2023-02-22T06:56:59;150.73;;;49.13;;
53925;SDS011;39836;52.754;6.866;2023-02-22T06:59:25;155.98;;;50.08;;
53925;SDS011;39836;52.754;6.866;2023-02-22T07:01:52;160.43;;;50.42;;
53925;SDS011;39836;52.754;6.866;2023-02-22T07:04:18;149.07;;;48.45;;
53925;SDS011;39836;52.754;6.866;2023-02-22T07:06:48;160.93;;;51.97;;
53925;SDS011;39836;52.754;6.866;2023-02-22T07:09:15;150.88;;;49.28;;
53925;SDS011;39836;52.754;6.866;2023-02-22T07:11:41;154.02;;;50.75;;
53925;SDS011;39836;52.754;6.866;2023-02-22T07:14:07;155.40;;;51.45;;
53925;SDS011;39836;52.754;6.866;2023-02-22T07:16:33;158.27;;;55.70;;
53925;SDS011;39836;52.754;6.866;2023-02-22T07:18:59;166.20;;;53.85;;
53925;SDS011;39836;52.754;6.866;2023-02-22T07:21:25;169.05;;;51.75;;
53925;SDS011;39836;52.754;6.866;2023-02-22T07:23:53;153.82;;;52.50;;
53925;SDS011;39836;52.754;6.866;2023-02-22T07:26:19;176.65;;;53.38;;
53925;SDS011;39836;52.754;6.866;2023-02-22T07:28:45;161.02;;;51.70;;
53925;SDS011;39836;52.754;6.866;2023-02-22T07:31:11;146.50;;;49.25;;
53925;SDS011;39836;52.754;6.866;2023-02-22T07:33:37;168.07;;;55.35;;
53925;SDS011;39836;52.754;6.866;2023-02-22T07:36:03;170.23;;;55.08;;
53925;SDS011;39836;52.754;6.866;2023-02-22T07:38:30;179.02;;;58.70;;
53925;SDS011;39836;52.754;6.866;2023-02-22T07:40:56;172.38;;;54.88;;
53925;SDS011;39836;52.754;6.866;2023-02-22T07:43:23;167.23;;;55.30;;
53925;SDS011;39836;52.754;6.866;2023-02-22T07:45:50;182.93;;;55.92;;
53925;SDS011;39836;52.754;6.866;2023-02-22T07:48:17;174.55;;;54.45;;
53925;SDS011;39836;52.754;6.866;2023-02-22T07:50:44;166.27;;;54.55;;
53925;SDS011;39836;52.754;6.866;2023-02-22T07:53:13;178.43;;;51.85;;
53925;SDS011;39836;52.754;6.866;2023-02-22T07:55:40;171.35;;;52.67;;
53925;SDS011;39836;52.754;6.866;2023-02-22T07:58:06;191.82;;;54.75;;
53925;SDS011;39836;52.754;6.866;2023-02-22T08:00:35;187.40;;;52.80;;
53925;SDS011;39836;52.754;6.866;2023-02-22T08:03:04;186.18;;;59.63;;
53925;SDS011;39836;52.754;6.866;2023-02-22T08:05:31;185.50;;;54.95;;
53925;SDS011;39836;52.754;6.866;2023-02-22T08:07:58;180.65;;;51.75;;
53925;SDS011;39836;52.754;6.866;2023-02-22T08:10:24;204.85;;;57.20;;
53925;SDS011;39836;52.754;6.866;2023-02-22T08:12:51;199.15;;;57.45;;
53925;SDS011;39836;52.754;6.866;2023-02-22T08:15:19;185.82;;;55.17;;
53925;SDS011;39836;52.754;6.866;2023-02-22T08:17:48;194.15;;;52.08;;
53925;SDS011;39836;52.754;6.866;2023-02-22T08:20:14;193.02;;;54.63;;
53925;SDS011;39836;52.754;6.866;2023-02-22T08:22:43;218.90;;;59.88;;
53925;SDS011;39836;52.754;6.866;2023-02-22T08:25:10;220.48;;;59.63;;
53925;SDS011;39836;52.754;6.866;2023-02-22T08:27:37;202.23;;;55.38;;
53925;SDS011;39836;52.754;6.866;2023-02-22T08:30:03;188.93;;;56.22;;
53925;SDS011;39836;52.754;6.866;2023-02-22T08:32:29;211.95;;;60.30;;
53925;SDS011;39836;52.754;6.866;2023-02-22T08:34:55;214.55;;;59.63;;
53925;SDS011;39836;52.754;6.866;2023-02-22T08:37:20;208.25;;;56.03;;
53925;SDS011;39836;52.754;6.866;2023-02-22T08:39:46;218.35;;;57.20;;
53925;SDS011;39836;52.754;6.866;2023-02-22T08:42:11;246.02;;;63.25;;
53925;SDS011;39836;52.754;6.866;2023-02-22T08:44:38;253.80;;;63.38;;
53925;SDS011;39836;52.754;6.866;2023-02-22T08:47:04;234.95;;;53.85;;
53925;SDS011;39836;52.754;6.866;2023-02-22T08:49:30;268.13;;;58.85;;
53925;SDS011;39836;52.754;6.866;2023-02-22T08:51:56;301.40;;;64.35;;
53925;SDS011;39836;52.754;6.866;2023-02-22T08:54:22;243.90;;;49.67;;
53925;SDS011;39836;52.754;6.866;2023-02-22T08:56:48;221.43;;;49.97;;
53925;SDS011;39836;52.754;6.866;2023-02-22T08:59:14;239.85;;;53.10;;
53925;SDS011;39836;52.754;6.866;2023-02-22T09:01:40;219.20;;;48.92;;
53925;SDS011;39836;52.754;6.866;2023-02-22T09:04:06;210.25;;;50.47;;
53925;SDS011;39836;52.754;6.866;2023-02-22T09:06:32;204.80;;;44.33;;
53925;SDS011;39836;52.754;6.866;2023-02-22T09:08:57;203.35;;;46.55;;
53925;SDS011;39836;52.754;6.866;2023-02-22T09:11:23;244.30;;;47.83;;
53925;SDS011;39836;52.754;6.866;2023-02-22T09:13:49;243.00;;;53.47;;
53925;SDS011;39836;52.754;6.866;2023-02-22T09:16:14;248.35;;;53.67;;
53925;SDS011;39836;52.754;6.866;2023-02-22T09:18:40;294.70;;;55.70;;
53925;SDS011;39836;52.754;6.866;2023-02-22T09:21:06;275.23;;;54.65;;
53925;SDS011;39836;52.754;6.866;2023-02-22T09:23:32;203.35;;;42.83;;
53925;SDS011;39836;52.754;6.866;2023-02-22T09:25:58;235.98;;;53.78;;
53925;SDS011;39836;52.754;6.866;2023-02-22T09:28:25;254.88;;;51.72;;
53925;SDS011;39836;52.754;6.866;2023-02-22T09:30:51;235.63;;;51.08;;
53925;SDS011;39836;52.754;6.866;2023-02-22T09:33:17;267.08;;;54.28;;
53925;SDS011;39836;52.754;6.866;2023-02-22T09:35:44;240.20;;;51.45;;
53925;SDS011;39836;52.754;6.866;2023-02-22T09:38:16;246.77;;;47.58;;
53925;SDS011;39836;52.754;6.866;2023-02-22T09:41:01;226.30;;;48.80;;
53925;SDS011;39836;52.754;6.866;2023-02-22T09:43:37;246.55;;;47.35;;
53925;SDS011;39836;52.754;6.866;2023-02-22T09:54:36;212.80;;;46.80;;
53925;SDS011;39836;52.754;6.866;2023-02-22T09:57:38;237.77;;;49.85;;
53925;SDS011;39836;52.754;6.866;2023-02-22T10:00:20;223.40;;;46.67;;
53925;SDS011;39836;52.754;6.866;2023-02-22T10:05:41;258.70;;;48.35;;
53925;SDS011;39836;52.754;6.866;2023-02-22T10:08:15;204.00;;;46.20;;
53925;SDS011;39836;52.754;6.866;2023-02-22T10:10:43;195.93;;;43.47;;
53925;SDS011;39836;52.754;6.866;2023-02-22T10:24:22;184.40;;;43.97;;
53925;SDS011;39836;52.754;6.866;2023-02-22T10:27:20;158.52;;;43.38;;
53925;SDS011;39836;52.754;6.866;2023-02-22T10:29:50;148.20;;;40.05;;
53925;SDS011;39836;52.754;6.866;2023-02-22T10:32:20;165.73;;;44.80;;
53925;SDS011;39836;52.754;6.866;2023-02-22T10:34:51;183.13;;;47.03;;
53925;SDS011;39836;52.754;6.866;2023-02-22T10:37:31;197.40;;;48.80;;
53925;SDS011;39836;52.754;6.866;2023-02-22T10:40:01;189.20;;;48.45;;
53925;SDS011;39836;52.754;6.866;2023-02-22T10:42:36;162.00;;;44.08;;
53925;SDS011;39836;52.754;6.866;2023-02-22T10:45:02;177.98;;;46.83;;
53925;SDS011;39836;52.754;6.866;2023-02-22T10:47:28;151.82;;;42.13;;
53925;SDS011;39836;52.754;6.866;2023-02-22T10:49:57;167.45;;;44.75;;
53925;SDS011;39836;52.754;6.866;2023-02-22T10:52:26;152.10;;;42.95;;
53925;SDS011;39836;52.754;6.866;2023-02-22T10:54:56;154.18;;;41.58;;
53925;SDS011;39836;52.754;6.866;2023-02-22T10:57:30;180.70;;;47.85;;
53925;SDS011;39836;52.754;6.866;2023-02-22T11:02:50;166.50;;;44.85;;
53925;SDS011;39836;52.754;6.866;2023-02-22T11:05:25;162.85;;;45.97;;
53925;SDS011;39836;52.754;6.866;2023-02-22T11:10:39;204.98;;;48.63;;
53925;SDS011;39836;52.754;6.866;2023-02-22T11:16:19;170.70;;;47.00;;
53925;SDS011;39836;52.754;6.866;2023-02-22T11:21:27;137.48;;;40.45;;
53925;SDS011;39836;52.754;6.866;2023-02-22T11:24:03;125.43;;;37.60;;
53925;SDS011;39836;52.754;6.866;2023-02-22T11:26:40;141.68;;;41.42;;
53925;SDS011;39836;52.754;6.866;2023-02-22T11:29:18;132.20;;;40.10;;
53925;SDS011;39836;52.754;6.866;2023-02-22T11:31:52;128.70;;;39.35;;
53925;SDS011;39836;52.754;6.866;2023-02-22T11:34:27;125.82;;;40.38;;
53925;SDS011;39836;52.754;6.866;2023-02-22T11:42:39;123.28;;;39.20;;
53925;SDS011;39836;52.754;6.866;2023-02-22T11:47:56;119.32;;;38.63;;
53925;SDS011;39836;52.754;6.866;2023-02-22T11:55:43;107.72;;;39.65;;
53925;SDS011;39836;52.754;6.866;2023-02-22T12:01:07;103.15;;;38.85;;
53925;SDS011;39836;52.754;6.866;2023-02-22T12:09:43;117.22;;;40.83;;
53925;SDS011;39836;52.754;6.866;2023-02-22T12:15:02;98.07;;;36.38;;
53925;SDS011;39836;52.754;6.866;2023-02-22T12:17:43;101.93;;;37.60;;
53925;SDS011;39836;52.754;6.866;2023-02-22T12:20:38;101.00;;;35.90;;
53925;SDS011;39836;52.754;6.866;2023-02-22T12:23:13;87.00;;;34.65;;
53925;SDS011;39836;52.754;6.866;2023-02-22T12:26:03;102.72;;;37.22;;
53925;SDS011;39836;52.754;6.866;2023-02-22T12:28:52;108.93;;;38.60;;
53925;SDS011;39836;52.754;6.866;2023-02-22T12:31:36;96.82;;;37.80;;
53925;SDS011;39836;52.754;6.866;2023-02-22T12:37:00;94.10;;;36.67;;
53925;SDS011;39836;52.754;6.866;2023-02-22T12:39:41;92.75;;;37.28;;
53925;SDS011;39836;52.754;6.866;2023-02-22T12:45:12;97.30;;;37.35;;
53925;SDS011;39836;52.754;6.866;2023-02-22T12:47:46;100.78;;;37.50;;
53925;SDS011;39836;52.754;6.866;2023-02-22T12:50:20;101.07;;;38.08;;
53925;SDS011;39836;52.754;6.866;2023-02-22T12:55:40;91.07;;;38.03;;
53925;SDS011;39836;52.754;6.866;2023-02-22T12:58:19;97.95;;;39.38;;
53925;SDS011;39836;52.754;6.866;2023-02-22T13:01:15;100.30;;;38.13;;
53925;SDS011;39836;52.754;6.866;2023-02-22T13:03:44;107.40;;;38.22;;
53925;SDS011;39836;52.754;6.866;2023-02-22T13:06:18;93.65;;;37.30;;
53925;SDS011;39836;52.754;6.866;2023-02-22T13:14:40;95.15;;;39.10;;
53925;SDS011;39836;52.754;6.866;2023-02-22T13:25:15;78.60;;;34.33;;
53925;SDS011;39836;52.754;6.866;2023-02-22T13:28:02;77.25;;;34.05;;
53925;SDS011;39836;52.754;6.866;2023-02-22T13:33:21;69.63;;;33.58;;
53925;SDS011;39836;52.754;6.866;2023-02-22T13:41:00;75.25;;;34.88;;
53925;SDS011;39836;52.754;6.866;2023-02-22T13:49:01;69.72;;;34.22;;
53925;SDS011;39836;52.754;6.866;2023-02-22T13:51:34;74.30;;;34.65;;
53925;SDS011;39836;52.754;6.866;2023-02-22T13:54:21;70.78;;;33.20;;
53925;SDS011;39836;52.754;6.866;2023-02-22T13:56:48;69.75;;;33.83;;
53925;SDS011;39836;52.754;6.866;2023-02-22T13:59:29;67.68;;;33.13;;
53925;SDS011;39836;52.754;6.866;2023-02-22T14:01:58;61.67;;;31.67;;
53925;SDS011;39836;52.754;6.866;2023-02-22T14:06:54;60.65;;;31.42;;
53925;SDS011;39836;52.754;6.866;2023-02-22T14:15:17;59.35;;;31.70;;
53925;SDS011;39836;52.754;6.866;2023-02-22T14:22:40;64.00;;;33.95;;
53925;SDS011;39836;52.754;6.866;2023-02-22T14:27:55;55.85;;;30.15;;
53925;SDS011;39836;52.754;6.866;2023-02-22T14:30:25;56.17;;;31.83;;
53925;SDS011;39836;52.754;6.866;2023-02-22T14:32:53;62.03;;;32.70;;
53925;SDS011;39836;52.754;6.866;2023-02-22T14:35:19;57.25;;;32.42;;
53925;SDS011;39836;52.754;6.866;2023-02-22T14:37:56;60.45;;;32.30;;
53925;SDS011;39836;52.754;6.866;2023-02-22T14:40:28;56.80;;;30.30;;
53925;SDS011;39836;52.754;6.866;2023-02-22T14:43:12;56.95;;;31.05;;
53925;SDS011;39836;52.754;6.866;2023-02-22T14:45:56;52.08;;;30.55;;
53925;SDS011;39836;52.754;6.866;2023-02-22T14:48:33;52.67;;;30.95;;
53925;SDS011;39836;52.754;6.866;2023-02-22T14:51:20;55.33;;;31.48;;
53925;SDS011;39836;52.754;6.866;2023-02-22T14:56:44;50.90;;;29.50;;
53925;SDS011;39836;52.754;6.866;2023-02-22T15:01:56;53.22;;;28.70;;
53925;SDS011;39836;52.754;6.866;2023-02-22T15:04:30;55.25;;;30.50;;
53925;SDS011;39836;52.754;6.866;2023-02-22T15:06:57;48.85;;;28.33;;
53925;SDS011;39836;52.754;6.866;2023-02-22T15:09:30;54.08;;;30.00;;
53925;SDS011;39836;52.754;6.866;2023-02-22T15:14:27;54.60;;;29.90;;
53925;SDS011;39836;52.754;6.866;2023-02-22T15:17:00;52.65;;;30.15;;
53925;SDS011;39836;52.754;6.866;2023-02-22T15:19:31;54.55;;;29.55;;
53925;SDS011;39836;52.754;6.866;2023-02-22T15:22:00;54.72;;;29.45;;
53925;SDS011;39836;52.754;6.866;2023-02-22T15:24:28;50.78;;;29.98;;
53925;SDS011;39836;52.754;6.866;2023-02-22T15:27:06;53.22;;;30.80;;
53925;SDS011;39836;52.754;6.866;2023-02-22T15:29:40;55.03;;;30.70;;
53925;SDS011;39836;52.754;6.866;2023-02-22T15:32:18;57.85;;;31.25;;
53925;SDS011;39836;52.754;6.866;2023-02-22T15:34:54;56.60;;;31.98;;
53925;SDS011;39836;52.754;6.866;2023-02-22T15:37:29;53.97;;;31.90;;
53925;SDS011;39836;52.754;6.866;2023-02-22T15:40:06;56.08;;;31.20;;
53925;SDS011;39836;52.754;6.866;2023-02-22T15:42:49;55.20;;;31.85;;
53925;SDS011;39836;52.754;6.866;2023-02-22T15:45:22;56.78;;;31.27;;
53925;SDS011;39836;52.754;6.866;2023-02-22T15:47:49;53.00;;;30.88;;
53925;SDS011;39836;52.754;6.866;2023-02-22T15:50:20;57.90;;;31.92;;
53925;SDS011;39836;52.754;6.866;2023-02-22T15:52:54;67.75;;;32.90;;
53925;SDS011;39836;52.754;6.866;2023-02-22T16:00:42;55.83;;;30.27;;
53925;SDS011;39836;52.754;6.866;2023-02-22T16:03:12;58.80;;;33.70;;
53925;SDS011;39836;52.754;6.866;2023-02-22T16:05:42;58.05;;;32.03;;
53925;SDS011;39836;52.754;6.866;2023-02-22T16:08:14;57.90;;;32.88;;
53925;SDS011;39836;52.754;6.866;2023-02-22T16:10:46;59.45;;;32.55;;
53925;SDS011;39836;52.754;6.866;2023-02-22T16:13:23;58.10;;;32.22;;
53925;SDS011;39836;52.754;6.866;2023-02-22T16:16:33;53.70;;;32.25;;
53925;SDS011;39836;52.754;6.866;2023-02-22T16:18:44;58.58;;;33.30;;
53925;SDS011;39836;52.754;6.866;2023-02-22T16:21:12;58.95;;;34.03;;
53925;SDS011;39836;52.754;6.866;2023-02-22T16:23:46;60.28;;;33.17;;
53925;SDS011;39836;52.754;6.866;2023-02-22T16:26:18;61.30;;;34.33;;
53925;SDS011;39836;52.754;6.866;2023-02-22T16:28:55;59.17;;;34.03;;
53925;SDS011;39836;52.754;6.866;2023-02-22T16:31:33;55.63;;;32.78;;
53925;SDS011;39836;52.754;6.866;2023-02-22T16:34:07;56.65;;;33.20;;
53925;SDS011;39836;52.754;6.866;2023-02-22T16:36:40;57.10;;;33.22;;
53925;SDS011;39836;52.754;6.866;2023-02-22T16:39:11;56.38;;;33.13;;
53925;SDS011;39836;52.754;6.866;2023-02-22T16:41:43;60.58;;;33.10;;
53925;SDS011;39836;52.754;6.866;2023-02-22T16:44:09;59.70;;;33.80;;
53925;SDS011;39836;52.754;6.866;2023-02-22T16:46:37;57.38;;;34.17;;
53925;SDS011;39836;52.754;6.866;2023-02-22T16:49:03;56.80;;;32.35;;
53925;SDS011;39836;52.754;6.866;2023-02-22T16:51:31;58.03;;;33.25;;
53925;SDS011;39836;52.754;6.866;2023-02-22T16:54:04;53.57;;;32.47;;
53925;SDS011;39836;52.754;6.866;2023-02-22T16:56:30;60.70;;;34.38;;
53925;SDS011;39836;52.754;6.866;2023-02-22T16:58:59;57.33;;;35.00;;
53925;SDS011;39836;52.754;6.866;2023-02-22T17:01:27;62.33;;;35.95;;
53925;SDS011;39836;52.754;6.866;2023-02-22T17:03:53;61.97;;;34.45;;
53925;SDS011;39836;52.754;6.866;2023-02-22T17:06:19;63.10;;;35.35;;
53925;SDS011;39836;52.754;6.866;2023-02-22T17:08:46;59.15;;;35.20;;
53925;SDS011;39836;52.754;6.866;2023-02-22T17:11:15;60.78;;;34.55;;
53925;SDS011;39836;52.754;6.866;2023-02-22T17:13:41;59.25;;;34.30;;
53925;SDS011;39836;52.754;6.866;2023-02-22T17:16:13;63.72;;;36.83;;